Time;durP1;ratioP1;P1;durP2;ratioP2;P2;SDS_P1;SDS_P2;PMS_P1;PMS_P2;Temp;Humidity;BMP_temperature;BMP_pressure;BME280_temperature;BME280_humidity;BME280_pressure;Samples;Min_cycle;Max_cycle;Signal;HPM_P1;HPM_P2
2021/10/14 00:00:10;;;;;;;7.45;4.28;;;;;;;22.15;40.41;101679.88;4417966;32;20549;-68
2021/10/14 00:02:36;;;;;;;9.30;4.10;;;;;;;22.45;39.96;101680.63;4421710;32;20027;-68
2021/10/14 00:05:04;;;;;;;9.18;3.92;;;;;;;22.12;40.07;101680.87;4417531;32;20113;-68
2021/10/14 00:07:30;;;;;;;5.22;3.67;;;;;;;22.29;39.60;101678.28;4418573;32;20495;-68
2021/10/14 00:09:55;;;;;;;7.18;4.22;;;;;;;22.07;39.81;101675.06;4419889;32;20076;-68
2021/10/14 00:12:21;;;;;;;8.43;3.85;;;;;;;22.21;39.62;101686.50;4419629;32;20091;-68
2021/10/14 00:14:48;;;;;;;7.25;3.72;;;;;;;22.04;39.84;101682.59;4418921;32;20057;-68
2021/10/14 00:17:14;;;;;;;7.68;4.43;;;;;;;22.20;39.69;101675.53;4418481;32;20145;-68
2021/10/14 00:19:41;;;;;;;7.55;4.12;;;;;;;22.00;39.84;101669.75;4416790;32;20631;-68
2021/10/14 00:22:06;;;;;;;7.12;3.45;;;;;;;22.21;39.37;101672.16;4416816;32;20058;-68
2021/10/14 00:24:32;;;;;;;9.70;4.40;;;;;;;22.27;39.34;101667.31;4417017;32;20411;-68
2021/10/14 00:26:59;;;;;;;5.75;4.12;;;;;;;22.29;39.09;101669.69;4421975;32;20060;-68
2021/10/14 00:29:25;;;;;;;5.93;4.05;;;;;;;22.30;39.12;101654.84;4417440;32;20128;-68
2021/10/14 00:31:51;;;;;;;6.53;3.60;;;;;;;22.35;39.16;101651.28;4417585;32;20726;-68
2021/10/14 00:34:16;;;;;;;8.32;4.37;;;;;;;22.41;38.81;101654.22;4419067;32;20136;-68
2021/10/14 00:36:42;;;;;;;11.60;4.10;;;;;;;22.52;38.69;101643.72;4419379;32;20042;-68
2021/10/14 00:39:08;;;;;;;5.12;3.25;;;;;;;22.58;38.65;101655.31;4419797;32;20607;-68
2021/10/14 00:41:33;;;;;;;5.62;3.25;;;;;;;22.30;39.19;101657.72;4420568;32;20093;-68
2021/10/14 00:43:59;;;;;;;6.20;3.75;;;;;;;22.32;39.18;101648.62;4418864;32;20025;-68
2021/10/14 00:46:25;;;;;;;8.10;4.07;;;;;;;22.28;39.32;101648.03;4418070;32;20069;-68
2021/10/14 00:48:52;;;;;;;6.57;4.00;;;;;;;22.50;39.11;101649.19;4419482;32;20057;-68
2021/10/14 00:51:22;;;;;;;8.15;3.55;;;;;;;22.62;39.08;101645.19;4416283;32;20379;-68
2021/10/14 00:53:47;;;;;;;6.55;3.45;;;;;;;22.52;39.19;101646.59;4418740;32;20130;-68
2021/10/14 00:56:14;;;;;;;7.97;4.22;;;;;;;22.41;39.33;101643.56;4415617;32;20451;-68
2021/10/14 00:58:40;;;;;;;6.32;4.00;;;;;;;22.42;39.49;101645.12;4417173;32;20237;-68
2021/10/14 01:01:06;;;;;;;9.85;4.75;;;;;;;22.38;39.44;101641.69;4419304;32;20030;-68
2021/10/14 01:03:32;;;;;;;9.10;4.30;;;;;;;22.00;39.88;101638.22;4417631;32;20085;-68
2021/10/14 01:05:58;;;;;;;7.78;4.22;;;;;;;22.00;39.90;101638.22;4416326;32;20062;-68
2021/10/14 01:08:24;;;;;;;8.57;4.70;;;;;;;22.16;39.53;101646.28;4415969;32;20232;-68
2021/10/14 01:10:51;;;;;;;10.40;4.93;;;;;;;22.10;39.75;101631.06;4411790;32;20038;-68
2021/10/14 01:13:18;;;;;;;8.85;5.93;;;;;;;22.09;39.62;101636.00;4416302;32;20404;-68
2021/10/14 01:15:44;;;;;;;9.90;6.05;;;;;;;21.95;39.83;101636.81;4419554;32;20077;-68
2021/10/14 01:18:11;;;;;;;8.70;5.97;;;;;;;22.00;39.69;101636.09;4418972;32;20207;-68
2021/10/14 01:20:37;;;;;;;10.18;6.28;;;;;;;22.24;39.44;101638.84;4418669;32;20062;-68
2021/10/14 01:23:03;;;;;;;12.45;6.00;;;;;;;22.39;39.05;101622.38;4417579;32;20096;-69
2021/10/14 01:25:30;;;;;;;10.85;6.07;;;;;;;22.42;38.89;101624.25;4416031;32;20121;-68
2021/10/14 01:27:56;;;;;;;11.82;7.12;;;;;;;22.33;39.20;101621.53;4419781;32;20078;-68
2021/10/14 01:30:22;;;;;;;12.57;7.22;;;;;;;22.03;39.49;101612.19;4411341;32;20042;-68
2021/10/14 01:32:49;;;;;;;12.27;7.50;;;;;;;22.07;39.88;101609.13;4403684;32;20391;-69
2021/10/14 01:35:17;;;;;;;10.82;7.45;;;;;;;21.99;40.04;101610.84;4417833;32;20048;-68
2021/10/14 01:37:43;;;;;;;13.00;7.57;;;;;;;22.09;40.15;101606.56;4417959;32;20069;-68
2021/10/14 01:40:09;;;;;;;12.95;7.78;;;;;;;22.23;39.67;101617.19;4417441;32;20471;-68
2021/10/14 01:42:35;;;;;;;14.45;8.00;;;;;;;22.34;39.58;101611.62;4419752;32;20613;-68
2021/10/14 01:45:01;;;;;;;13.23;7.55;;;;;;;22.38;39.51;101610.13;4414682;32;20096;-68
2021/10/14 01:47:30;;;;;;;14.15;8.07;;;;;;;22.06;40.17;101616.16;4420784;32;20089;-68
2021/10/14 01:49:55;;;;;;;18.40;9.00;;;;;;;22.28;39.85;101614.44;4418042;32;20041;-68
2021/10/14 01:52:21;;;;;;;15.50;8.38;;;;;;;22.20;40.05;101616.13;4416869;32;20074;-68
2021/10/14 01:54:46;;;;;;;13.95;8.35;;;;;;;21.99;40.57;101614.47;4415923;32;20091;-68
2021/10/14 01:57:12;;;;;;;12.70;8.43;;;;;;;22.14;40.14;101608.69;4416298;32;20034;-68
2021/10/14 01:59:37;;;;;;;15.68;8.07;;;;;;;22.17;40.25;101607.72;4415917;32;20113;-68
2021/10/14 02:02:03;;;;;;;14.18;8.52;;;;;;;22.12;40.41;101614.94;4420664;32;20101;-68
2021/10/14 02:04:29;;;;;;;14.63;8.48;;;;;;;21.86;40.88;101605.41;4420260;32;20613;-68
2021/10/14 02:06:54;;;;;;;13.93;8.20;;;;;;;21.98;40.37;101609.25;4419626;32;20492;-68
2021/10/14 02:09:20;;;;;;;14.40;8.32;;;;;;;22.10;40.26;101606.06;4421161;32;20061;-68
2021/10/14 02:11:46;;;;;;;11.45;7.10;;;;;;;21.80;40.86;101604.53;4419241;32;20050;-68
2021/10/14 02:14:11;;;;;;;13.40;8.05;;;;;;;21.65;40.98;101597.97;4421355;32;20088;-68
2021/10/14 02:16:37;;;;;;;12.73;7.07;;;;;;;21.29;41.71;101612.69;4418899;32;20065;-68
2021/10/14 02:19:03;;;;;;;10.18;6.62;;;;;;;21.04;42.22;101602.59;4417227;32;20679;-68
2021/10/14 02:21:29;;;;;;;11.73;6.45;;;;;;;21.68;40.99;101597.78;4418905;32;20070;-68
2021/10/14 02:23:54;;;;;;;11.60;6.97;;;;;;;21.93;40.38;101595.63;4419469;32;20096;-68
2021/10/14 02:26:20;;;;;;;16.15;6.57;;;;;;;21.57;41.14;101603.31;4418514;32;20076;-68
2021/10/14 02:28:46;;;;;;;10.77;6.20;;;;;;;21.47;41.32;101598.97;4420030;32;20423;-68
2021/10/14 02:31:11;;;;;;;12.52;6.25;;;;;;;21.16;41.96;101590.06;4417677;32;20070;-68
2021/10/14 02:33:37;;;;;;;11.90;7.60;;;;;;;21.36;41.58;101595.13;4418467;32;20070;-68
2021/10/14 02:36:03;;;;;;;10.75;6.50;;;;;;;20.84;42.63;101581.59;4419347;32;20097;-68
2021/10/14 02:38:28;;;;;;;12.57;5.72;;;;;;;21.07;42.28;101580.75;4419112;32;20362;-68
2021/10/14 02:40:55;;;;;;;12.82;7.12;;;;;;;21.28;41.95;101585.34;4418731;32;20408;-68
2021/10/14 02:43:21;;;;;;;11.77;7.03;;;;;;;21.18;41.95;101587.53;4418126;32;20395;-68
2021/10/14 02:45:46;;;;;;;13.05;6.60;;;;;;;21.42;41.62;101581.72;4418777;32;21187;-68
2021/10/14 02:48:12;;;;;;;12.05;6.00;;;;;;;20.91;42.21;101579.16;4419654;32;20030;-68
2021/10/14 02:50:38;;;;;;;8.35;5.28;;;;;;;20.99;42.09;101579.59;4420658;32;20478;-68
2021/10/14 02:53:04;;;;;;;8.40;5.85;;;;;;;21.26;41.77;101579.34;4419092;32;20060;-68
2021/10/14 02:55:29;;;;;;;9.10;5.65;;;;;;;21.01;41.95;101582.72;4419255;32;20096;-68
2021/10/14 02:57:55;;;;;;;9.90;5.35;;;;;;;21.28;41.47;101589.00;4418710;32;20508;-68
2021/10/14 03:00:20;;;;;;;9.23;5.60;;;;;;;21.41;41.11;101586.63;4416666;32;20319;-68
2021/10/14 03:02:46;;;;;;;9.02;4.82;;;;;;;21.41;41.06;101583.78;4419153;32;20119;-68
2021/10/14 03:05:12;;;;;;;8.52;5.10;;;;;;;21.54;40.97;101580.62;4417963;32;20033;-68
2021/10/14 03:07:37;;;;;;;10.65;4.97;;;;;;;21.66;40.66;101570.91;4417912;32;20431;-68
2021/10/14 03:10:03;;;;;;;9.10;4.65;;;;;;;21.68;40.52;101572.00;4418847;32;20021;-68
2021/10/14 03:12:29;;;;;;;8.95;5.57;;;;;;;21.54;40.78;101577.75;4416635;32;20064;-68
2021/10/14 03:14:55;;;;;;;10.18;5.30;;;;;;;21.27;40.86;101578.03;4419380;32;20073;-68
2021/10/14 03:17:21;;;;;;;9.07;5.03;;;;;;;21.75;40.43;101570.06;4417829;32;20064;-68
2021/10/14 03:19:46;;;;;;;10.93;5.20;;;;;;;21.82;40.34;101573.31;4417335;32;20528;-68
2021/10/14 03:22:12;;;;;;;10.27;5.60;;;;;;;21.57;40.78;101582.50;4418396;32;20056;-68
2021/10/14 03:24:39;;;;;;;10.60;5.75;;;;;;;20.99;41.54;101571.78;4419085;32;20037;-68
2021/10/14 03:27:05;;;;;;;10.50;5.07;;;;;;;21.38;40.94;101569.63;4422403;32;20117;-68
2021/10/14 03:29:31;;;;;;;9.68;4.97;;;;;;;21.49;40.66;101564.91;4418875;32;20109;-68
2021/10/14 03:31:57;;;;;;;12.68;5.53;;;;;;;21.03;41.60;101566.66;4416845;32;20103;-68
2021/10/14 03:34:23;;;;;;;10.27;4.78;;;;;;;21.27;41.08;101563.72;4421016;32;20073;-68
2021/10/14 03:36:49;;;;;;;10.07;4.80;;;;;;;21.04;41.30;101562.50;4417485;32;20034;-68
2021/10/14 03:39:15;;;;;;;14.00;5.45;;;;;;;21.04;41.55;101562.50;4421582;32;20309;-68
2021/10/14 03:41:40;;;;;;;9.35;5.28;;;;;;;21.06;41.47;101562.81;4416916;32;20086;-68
2021/10/14 03:44:06;;;;;;;10.15;5.25;;;;;;;20.94;41.61;101561.03;4419603;32;20398;-68
2021/10/14 03:46:32;;;;;;;9.63;5.40;;;;;;;20.90;41.87;101562.47;4417179;32;20373;-68
2021/10/14 03:48:57;;;;;;;11.57;5.32;;;;;;;20.59;42.41;101556.38;4420516;32;20144;-68
2021/10/14 03:51:23;;;;;;;8.57;5.22;;;;;;;20.72;42.24;101546.25;4417689;32;20035;-68
2021/10/14 03:53:49;;;;;;;9.63;5.07;;;;;;;21.04;41.69;101561.72;4418050;32;20428;-68
2021/10/14 03:56:15;;;;;;;9.18;5.12;;;;;;;21.14;41.32;101551.78;4417276;32;20431;-68
2021/10/14 03:58:40;;;;;;;8.82;5.00;;;;;;;21.23;41.37;101554.56;4420023;32;20142;-68
2021/10/14 04:01:06;;;;;;;9.90;4.93;;;;;;;21.41;40.98;101546.53;4415434;32;20070;-68
2021/10/14 04:03:31;;;;;;;8.23;5.30;;;;;;;21.65;40.66;101550.06;4421262;32;20094;-68
2021/10/14 04:05:57;;;;;;;12.25;5.35;;;;;;;21.61;40.54;101546.63;4417583;32;20162;-68
2021/10/14 04:08:23;;;;;;;8.18;5.25;;;;;;;21.79;40.21;101539.91;4416663;32;20073;-69
2021/10/14 04:10:49;;;;;;;10.55;6.12;;;;;;;22.01;39.79;101545.19;4420999;32;20057;-68
2021/10/14 04:13:14;;;;;;;9.88;5.10;;;;;;;22.12;39.90;101537.53;4419054;32;20116;-69
2021/10/14 04:15:40;;;;;;;7.68;5.07;;;;;;;22.26;39.62;101535.91;4416301;32;20073;-68
2021/10/14 04:18:07;;;;;;;10.55;5.55;;;;;;;22.32;39.57;101531.03;4416657;32;20025;-68
2021/10/14 04:20:34;;;;;;;10.32;5.65;;;;;;;22.19;39.78;101530.59;4416127;32;20022;-68
2021/10/14 04:22:59;;;;;;;11.02;5.30;;;;;;;22.39;39.46;101533.47;4415834;32;20480;-68
2021/10/14 04:25:26;;;;;;;9.63;5.78;;;;;;;22.34;39.40;101525.59;4416651;32;20092;-68
2021/10/14 04:27:52;;;;;;;12.27;5.78;;;;;;;22.28;39.55;101527.59;4418596;32;20049;-68
2021/10/14 04:30:18;;;;;;;9.07;5.53;;;;;;;22.42;39.16;101532.47;4416944;32;20087;-68
2021/10/14 04:32:44;;;;;;;9.77;5.50;;;;;;;22.20;39.66;101532.16;4418485;32;20038;-68
2021/10/14 04:35:10;;;;;;;10.00;6.00;;;;;;;22.57;39.16;101528.25;4418184;32;20077;-68
2021/10/14 04:37:42;;;;;;;11.27;6.05;;;;;;;22.27;39.63;101537.50;4415554;32;20066;-68
2021/10/14 04:40:10;;;;;;;10.55;5.62;;;;;;;22.56;39.03;101537.38;4415702;32;20452;-68
2021/10/14 04:42:35;;;;;;;10.52;5.78;;;;;;;22.33;39.73;101521.16;4420659;32;20076;-68
2021/10/14 04:45:01;;;;;;;12.95;5.93;;;;;;;22.21;39.77;101517.31;4417787;32;20068;-68
2021/10/14 04:47:27;;;;;;;9.43;4.93;;;;;;;22.22;39.75;101516.06;4418090;32;20339;-69
2021/10/14 04:49:53;;;;;;;14.68;6.00;;;;;;;22.38;39.57;101524.09;4417068;32;20060;-68
2021/10/14 04:52:19;;;;;;;10.45;5.15;;;;;;;22.37;39.67;101525.34;4418991;32;21220;-68
2021/10/14 04:54:45;;;;;;;12.20;4.85;;;;;;;22.47;39.53;101512.47;4411575;32;20506;-68
2021/10/14 04:57:10;;;;;;;8.20;4.30;;;;;;;22.40;39.64;101517.84;4419749;32;20038;-69
2021/10/14 04:59:36;;;;;;;9.30;5.12;;;;;;;22.23;39.92;101514.75;4417079;32;20038;-68
2021/10/14 05:02:02;;;;;;;6.75;4.57;;;;;;;22.54;39.34;101512.06;4418332;32;20060;-69
2021/10/14 05:04:28;;;;;;;10.48;4.70;;;;;;;22.66;39.44;101512.97;4417467;32;20084;-69
2021/10/14 05:06:54;;;;;;;6.85;4.50;;;;;;;22.68;39.16;101511.19;4417777;32;20528;-68
2021/10/14 05:09:20;;;;;;;8.82;4.78;;;;;;;22.59;39.21;101510.53;4417066;32;20167;-68
2021/10/14 05:11:45;;;;;;;8.13;4.85;;;;;;;22.76;39.07;101509.44;4417629;32;20060;-68
2021/10/14 05:14:11;;;;;;;11.02;4.78;;;;;;;22.64;39.38;101501.22;4416810;32;20449;-68
2021/10/14 05:16:37;;;;;;;8.70;4.53;;;;;;;22.84;39.03;101501.97;4418662;32;20372;-68
2021/10/14 05:19:03;;;;;;;7.95;4.43;;;;;;;22.79;38.94;101499.03;4420168;32;20664;-69
2021/10/14 05:21:30;;;;;;;6.50;4.12;;;;;;;22.92;38.93;101497.34;4417093;32;20165;-68
2021/10/14 05:23:59;;;;;;;8.05;4.10;;;;;;;23.07;38.67;101497.25;4412045;32;20410;-68
2021/10/14 05:26:27;;;;;;;6.45;4.10;;;;;;;22.93;38.81;101492.41;4418759;32;20313;-68
2021/10/14 05:28:55;;;;;;;7.35;4.07;;;;;;;22.87;38.97;101485.81;4415226;32;20063;-68
2021/10/14 05:31:20;;;;;;;5.95;3.50;;;;;;;22.83;39.03;101491.00;4415182;32;20025;-68
2021/10/14 05:33:46;;;;;;;5.37;3.15;;;;;;;22.59;39.25;101485.53;4417656;32;20091;-70
2021/10/14 05:36:12;;;;;;;4.05;2.75;;;;;;;22.40;39.73;101481.31;4416656;32;20116;-68
2021/10/14 05:38:37;;;;;;;3.92;2.78;;;;;;;22.28;39.50;101475.97;4421040;32;20478;-70
2021/10/14 05:41:03;;;;;;;6.87;2.87;;;;;;;22.16;40.12;101477.13;4421766;32;20061;-69
2021/10/14 05:43:29;;;;;;;5.07;3.30;;;;;;;22.15;39.84;101473.44;4421448;32;20134;-69
2021/10/14 05:45:55;;;;;;;10.48;4.55;;;;;;;22.28;39.70;101464.50;4421064;32;20073;-69
2021/10/14 05:48:21;;;;;;;9.38;3.25;;;;;;;22.19;39.80;101476.91;4420425;32;20130;-68
2021/10/14 05:50:47;;;;;;;7.18;3.65;;;;;;;22.04;39.87;101461.84;4421109;32;20061;-68
2021/10/14 05:53:12;;;;;;;6.45;3.67;;;;;;;21.83;40.44;101471.72;4424029;32;20038;-68
2021/10/14 05:55:38;;;;;;;8.00;4.00;;;;;;;21.75;40.28;101461.94;4421727;32;20029;-68
2021/10/14 05:58:03;;;;;;;8.45;3.80;;;;;;;21.53;41.08;101456.66;4419705;32;20085;-68
2021/10/14 06:00:29;;;;;;;7.15;4.22;;;;;;;21.57;40.78;101456.47;4418549;32;20437;-70
2021/10/14 06:02:55;;;;;;;10.32;4.55;;;;;;;21.45;41.24;101458.34;4420084;32;20171;-70
2021/10/14 06:05:20;;;;;;;9.75;4.50;;;;;;;21.39;41.29;101448.88;4420053;32;20113;-69
2021/10/14 06:07:47;;;;;;;9.57;4.00;;;;;;;21.30;41.62;101448.22;4418103;32;20042;-68
2021/10/14 06:10:14;;;;;;;9.07;4.37;;;;;;;21.32;41.49;101440.69;4418612;32;20022;-68
2021/10/14 06:12:40;;;;;;;11.55;4.82;;;;;;;21.23;41.77;101429.34;4421362;32;20048;-68
2021/10/14 06:15:07;;;;;;;9.40;4.53;;;;;;;21.00;42.10;101430.28;4421342;32;20069;-69
2021/10/14 06:17:32;;;;;;;6.55;4.70;;;;;;;20.85;42.67;101429.47;4413065;32;20022;-68
2021/10/14 06:19:58;;;;;;;8.45;4.47;;;;;;;20.86;42.52;101436.75;4419779;32;20017;-68
2021/10/14 06:22:24;;;;;;;7.32;4.25;;;;;;;20.93;42.49;101436.34;4420833;32;20319;-68
2021/10/14 06:24:50;;;;;;;9.38;3.80;;;;;;;20.70;43.06;101428.66;4420804;32;20506;-68
2021/10/14 06:27:15;;;;;;;11.00;4.53;;;;;;;20.84;42.86;101425.03;4421171;32;20073;-69
2021/10/14 06:29:41;;;;;;;7.40;4.62;;;;;;;20.69;43.18;101427.09;4412966;32;20569;-69
2021/10/14 06:32:07;;;;;;;10.48;5.32;;;;;;;20.95;42.63;101430.16;4419212;32;20100;-69
2021/10/14 06:34:33;;;;;;;8.90;4.07;;;;;;;20.87;42.64;101426.91;4418834;32;20053;-69
2021/10/14 06:36:59;;;;;;;7.75;4.50;;;;;;;20.98;42.81;101426.31;4416982;32;20022;-69
2021/10/14 06:39:25;;;;;;;10.93;4.15;;;;;;;20.94;42.74;101431.44;4418524;32;20073;-69
2021/10/14 06:41:54;;;;;;;9.85;4.30;;;;;;;20.78;43.26;101421.28;4416903;32;20142;-69
2021/10/14 06:44:22;;;;;;;7.87;4.43;;;;;;;20.91;42.97;101423.81;4413271;32;20387;-69
2021/10/14 06:46:49;;;;;;;11.98;6.90;;;;;;;20.84;43.35;101418.50;4414055;32;20073;-69
2021/10/14 06:49:15;;;;;;;12.82;8.98;;;;;;;20.73;43.64;101421.97;4414500;32;20414;-70
2021/10/14 06:51:40;;;;;;;23.00;14.23;;;;;;;20.69;43.72;101421.38;4414625;32;20078;-70
2021/10/14 06:54:06;;;;;;;14.05;11.77;;;;;;;20.68;43.64;101419.00;4418241;32;20420;-69
2021/10/14 06:56:32;;;;;;;17.52;7.97;;;;;;;20.74;43.72;101414.94;4413912;32;20583;-69
2021/10/14 06:58:58;;;;;;;6.78;4.45;;;;;;;20.85;43.40;101422.94;4404826;32;20041;-69
2021/10/14 07:01:24;;;;;;;12.68;7.25;;;;;;;21.07;42.98;101424.16;4412062;32;20523;-69
2021/10/14 07:03:50;;;;;;;10.80;4.45;;;;;;;21.12;42.86;101423.47;4411427;32;20081;-69
2021/10/14 07:06:15;;;;;;;6.45;2.80;;;;;;;21.27;42.61;101417.72;4408438;32;20364;-69
2021/10/14 07:08:42;;;;;;;7.00;3.12;;;;;;;21.44;42.21;101416.69;4408292;32;20678;-70
2021/10/14 07:11:08;;;;;;;5.65;2.75;;;;;;;21.58;42.00;101415.06;4412644;32;20061;-70
2021/10/14 07:13:34;;;;;;;7.45;3.20;;;;;;;21.37;42.49;101419.97;4413047;32;20050;-70
2021/10/14 07:16:00;;;;;;;5.50;3.40;;;;;;;21.62;41.98;101421.38;4413804;32;20430;-70
2021/10/14 07:18:25;;;;;;;6.53;4.70;;;;;;;21.73;41.66;101415.81;4413356;32;20059;-69
2021/10/14 07:20:51;;;;;;;6.37;2.67;;;;;;;21.45;42.07;101406.78;4404019;32;20273;-70
2021/10/14 07:23:17;;;;;;;6.10;2.50;;;;;;;21.43;42.13;101409.38;4409720;32;20077;-69
2021/10/14 07:25:44;;;;;;;5.07;2.20;;;;;;;21.50;42.07;101408.97;4412297;32;20030;-69
2021/10/14 07:28:11;;;;;;;6.65;3.37;;;;;;;21.35;42.29;101405.34;4414220;32;20053;-69
2021/10/14 07:30:38;;;;;;;13.80;6.93;;;;;;;21.59;41.90;101391.66;4409709;32;20513;-69
2021/10/14 07:33:05;;;;;;;6.97;2.72;;;;;;;21.89;41.44;101397.28;4410487;32;20108;-70
2021/10/14 07:35:32;;;;;;;7.53;3.53;;;;;;;21.91;41.27;101386.09;4412033;32;20091;-70
2021/10/14 07:37:59;;;;;;;5.07;2.50;;;;;;;22.12;40.90;101391.31;4410631;32;20033;-69
2021/10/14 07:40:27;;;;;;;5.53;2.83;;;;;;;22.04;40.69;101389.41;4412691;32;20057;-70
2021/10/14 07:42:53;;;;;;;6.00;2.85;;;;;;;22.25;40.28;101390.94;4413430;32;20356;-69
2021/10/14 07:45:19;;;;;;;4.65;3.22;;;;;;;22.22;40.18;101386.22;4410933;32;20034;-70
2021/10/14 07:47:45;;;;;;;6.30;3.15;;;;;;;22.26;40.14;101386.78;4416241;32;20065;-70
2021/10/14 07:50:12;;;;;;;5.47;3.37;;;;;;;22.46;39.72;101387.53;4410742;32;20034;-70
2021/10/14 07:52:41;;;;;;;4.53;2.95;;;;;;;22.46;39.48;101381.78;4417223;32;20034;-71
2021/10/14 07:55:08;;;;;;;5.57;2.60;;;;;;;23.09;38.76;101386.34;4408718;32;20070;-71
2021/10/14 07:57:34;;;;;;;4.93;2.80;;;;;;;23.10;38.36;101381.38;4413287;32;20472;-71
2021/10/14 08:00:01;;;;;;;4.60;2.55;;;;;;;23.31;38.00;101374.25;4407477;32;20046;-71
2021/10/14 08:02:26;;;;;;;5.75;2.97;;;;;;;23.43;37.60;101375.87;4406961;32;20141;-72
2021/10/14 08:04:55;;;;;;;4.00;2.67;;;;;;;23.63;37.32;101364.28;4411753;32;20489;-70
2021/10/14 08:07:21;;;;;;;4.70;2.90;;;;;;;23.19;37.99;101361.88;4412016;32;20065;-70
2021/10/14 08:09:48;;;;;;;5.87;2.20;;;;;;;23.36;37.14;101364.88;4416228;32;20080;-70
2021/10/14 08:12:14;;;;;;;7.30;2.03;;;;;;;23.78;36.49;101364.88;4410692;32;20041;-70
2021/10/14 08:14:40;;;;;;;5.00;2.20;;;;;;;23.91;36.54;101364.41;4411521;32;20077;-70
2021/10/14 08:17:06;;;;;;;7.25;2.37;;;;;;;23.98;36.48;101358.97;4413274;32;20130;-70
2021/10/14 08:19:31;;;;;;;3.33;2.17;;;;;;;24.06;36.19;101347.75;4414736;32;20149;-70
2021/10/14 08:21:58;;;;;;;3.85;1.85;;;;;;;23.69;36.76;101342.09;4411101;32;20112;-70
2021/10/14 08:24:25;;;;;;;5.35;2.17;;;;;;;23.83;36.53;101352.59;4412413;32;20073;-70
2021/10/14 08:26:51;;;;;;;3.92;2.22;;;;;;;24.21;35.73;101359.84;4413092;32;20034;-70
2021/10/14 08:29:16;;;;;;;5.03;1.98;;;;;;;24.45;35.48;101357.28;4407885;32;20103;-70
2021/10/14 08:31:43;;;;;;;9.18;3.10;;;;;;;24.62;35.06;101352.31;4411862;32;20318;-70
2021/10/14 08:34:09;;;;;;;5.87;2.60;;;;;;;24.19;35.90;101342.28;4411264;32;20542;-69
2021/10/14 08:36:40;;;;;;;2.33;1.90;;;;;;;24.51;35.22;101341.56;4413753;32;20065;-70
2021/10/14 08:39:06;;;;;;;5.50;2.22;;;;;;;22.68;37.75;101358.31;4410614;32;20150;-68
2021/10/14 08:41:32;;;;;;;4.28;2.00;;;;;;;22.72;38.13;101344.53;4409518;32;20100;-68
2021/10/14 08:44:01;;;;;;;4.70;2.40;;;;;;;23.11;37.16;101337.78;4412407;32;20070;-69
2021/10/14 08:46:27;;;;;;;5.82;2.42;;;;;;;23.29;37.28;101337.41;4414040;32;20111;-69
2021/10/14 08:48:54;;;;;;;4.30;2.65;;;;;;;23.11;37.29;101346.41;4416474;32;20413;-70
2021/10/14 08:51:20;;;;;;;6.50;3.00;;;;;;;22.74;38.21;101342.69;4414422;32;20450;-71
2021/10/14 08:53:46;;;;;;;5.70;2.30;;;;;;;22.88;38.19;101323.78;4409586;32;20165;-71
2021/10/14 08:56:12;;;;;;;4.95;2.37;;;;;;;22.69;38.57;101337.72;4409917;32;20103;-70
2021/10/14 08:58:37;;;;;;;5.32;3.10;;;;;;;22.75;38.11;101324.22;4410115;32;20069;-71
2021/10/14 09:01:06;;;;;;;2.33;1.70;;;;;;;23.04;37.95;101326.00;4412481;32;20093;-70
2021/10/14 09:03:33;;;;;;;6.12;2.05;;;;;;;23.05;37.91;101327.56;4413488;32;20090;-70
2021/10/14 09:06:00;;;;;;;3.03;1.60;;;;;;;23.06;37.68;101311.91;4415635;32;20520;-71
2021/10/14 09:13:58;;;;;;;5.20;1.70;;;;;;;23.63;36.86;101326.13;3972408;32;15027287;-70
2021/10/14 09:16:34;;;;;;;7.78;1.80;;;;;;;23.12;37.56;101315.59;4427495;32;20080;-69
2021/10/14 09:19:21;;;;;;;4.80;2.10;;;;;;;23.10;37.53;101307.50;4425998;32;20483;-69
2021/10/14 09:21:50;;;;;;;4.72;2.08;;;;;;;23.46;36.92;101309.59;4422041;32;20558;-69
2021/10/14 09:24:29;;;;;;;3.17;2.03;;;;;;;24.15;35.89;101299.44;4423107;32;20092;-69
2021/10/14 09:26:56;;;;;;;6.68;1.70;;;;;;;24.31;35.54;101306.50;4429410;32;20102;-69
2021/10/14 09:29:25;;;;;;;4.68;2.28;;;;;;;24.51;35.33;101303.41;4425746;32;20045;-69
2021/10/14 09:31:56;;;;;;;4.78;1.60;;;;;;;25.38;33.69;101302.56;4425815;32;20089;-69
2021/10/14 09:34:39;;;;;;;3.95;1.10;;;;;;;26.26;32.48;101309.28;4423677;32;20107;-70
2021/10/14 09:40:00;;;;;;;4.65;1.75;;;;;;;26.96;31.35;101300.59;3984236;31;15017440;-70
2021/10/14 09:45:30;;;;;;;3.00;1.40;;;;;;;26.56;31.80;101275.44;3971229;32;15027443;-70
2021/10/14 09:50:44;;;;;;;5.12;1.30;;;;;;;25.58;33.55;101271.84;3978102;32;15028994;-70
2021/10/14 09:53:13;;;;;;;3.42;1.37;;;;;;;25.58;33.55;101271.84;4425716;32;20424;-70
2021/10/14 09:55:40;;;;;;;3.12;1.67;;;;;;;25.00;34.58;101276.69;4423516;32;20112;-70
2021/10/14 09:58:06;;;;;;;3.55;1.77;;;;;;;24.98;34.46;101274.34;4425904;32;20553;-73
2021/10/14 10:00:33;;;;;;;6.87;2.65;;;;;;;25.75;33.38;101269.66;4419647;32;20152;-72
2021/10/14 10:03:00;;;;;;;2.15;1.20;;;;;;;25.89;33.42;101269.31;4422788;32;20579;-72
2021/10/14 10:05:28;;;;;;;4.20;1.80;;;;;;;26.17;32.47;101261.31;4421030;32;20127;-73
2021/10/14 10:07:55;;;;;;;3.40;1.98;;;;;;;25.77;32.77;101267.03;4419675;32;20076;-73
2021/10/14 10:10:23;;;;;;;8.07;2.25;;;;;;;25.91;32.97;101251.50;4425266;32;20091;-72
2021/10/14 10:12:51;;;;;;;6.78;1.70;;;;;;;26.40;32.43;101262.72;4422980;32;20072;-72
2021/10/14 10:15:45;;;;;;;3.25;2.10;;;;;;;26.27;32.53;101256.00;4423543;32;20069;-70
2021/10/14 10:21:06;;;;;;;5.60;3.10;;;;;;;25.71;33.41;101263.41;3984684;32;15025811;-70
2021/10/14 10:23:52;;;;;;;5.20;1.83;;;;;;;25.71;33.41;101263.41;4440397;32;20549;-70
2021/10/14 10:43:00;;;;;;;7.95;2.20;;;;;;;25.40;34.88;101243.63;3976039;32;15024915;-70
2021/10/14 10:45:29;;;;;;;4.18;1.52;;;;;;;25.40;34.88;101243.63;4423551;32;20464;-70
2021/10/14 10:53:14;;;;;;;6.95;2.05;;;;;;;24.87;35.49;101234.06;3983162;31;15016078;-68
2021/10/14 10:55:44;;;;;;;6.32;2.45;;;;;;;24.87;35.49;101234.06;4442223;32;20137;-69
2021/10/14 10:58:12;;;;;;;6.20;2.65;;;;;;;24.30;36.31;101228.03;4438786;32;20108;-69
2021/10/14 11:00:42;;;;;;;3.78;2.12;;;;;;;24.30;36.36;101224.41;4441822;32;20105;-69
2021/10/14 11:05:53;;;;;;;7.07;2.35;;;;;;;25.11;35.38;101228.50;3974608;32;15032074;-69
2021/10/14 11:08:23;;;;;;;8.13;1.75;;;;;;;25.11;35.38;101228.50;4426919;32;20078;-70
2021/10/14 11:10:53;;;;;;;5.40;1.67;;;;;;;25.17;34.98;101228.47;4427218;32;20135;-70
2021/10/14 11:13:20;;;;;;;6.95;1.70;;;;;;;24.56;35.98;101219.16;4424795;32;20391;-70
2021/10/14 11:15:48;;;;;;;5.43;1.90;;;;;;;24.36;36.69;101214.44;4423842;32;20588;-70
2021/10/14 11:18:13;;;;;;;3.80;1.75;;;;;;;24.88;35.82;101215.47;4423518;32;20516;-70
2021/10/14 11:20:49;;;;;;;8.25;1.83;;;;;;;24.88;35.85;101206.81;4416550;32;20077;-70
2021/10/14 11:23:15;;;;;;;6.20;1.52;;;;;;;25.03;35.50;101207.31;4421500;32;20045;-71
2021/10/14 11:25:42;;;;;;;7.25;1.90;;;;;;;24.79;35.97;101212.09;4421717;32;20103;-69
2021/10/14 11:28:10;;;;;;;7.40;1.75;;;;;;;25.12;35.51;101204.13;4415988;32;20080;-69
2021/10/14 11:30:41;;;;;;;5.95;1.67;;;;;;;25.20;35.40;101192.84;4413688;32;20490;-69
2021/10/14 11:33:26;;;;;;;7.70;1.87;;;;;;;25.32;35.53;101183.66;4426536;32;20108;-69
2021/10/14 11:36:07;;;;;;;;;;;;;;;25.66;34.80;101183.50;4427927;32;20033;-71
2021/10/14 11:38:34;;;;;;;8.32;2.00;;;;;;;25.83;34.55;101187.81;4423094;32;19960;-70
2021/10/14 11:41:01;;;;;;;8.40;1.75;;;;;;;25.32;35.21;101185.78;4419676;32;20080;-70
2021/10/14 11:43:30;;;;;;;11.50;2.53;;;;;;;25.67;34.84;101179.31;4419238;32;20391;-69
2021/10/14 11:45:58;;;;;;;6.93;2.20;;;;;;;25.90;34.62;101193.03;4421817;32;20172;-69
2021/10/14 11:51:07;;;;;;;6.15;1.90;;;;;;;25.92;34.55;101170.19;3965338;32;15027596;-71
2021/10/14 11:53:34;;;;;;;6.55;1.73;;;;;;;25.74;34.84;101165.09;4419792;32;20049;-69
2021/10/14 11:56:05;;;;;;;8.07;2.00;;;;;;;25.38;35.21;101172.13;4416817;32;20080;-69
2021/10/14 11:58:32;;;;;;;15.80;2.45;;;;;;;25.12;35.73;101163.81;4416282;32;20113;-69
2021/10/14 12:01:03;;;;;;;8.68;1.90;;;;;;;24.78;36.44;101165.25;4419954;32;20100;-70
2021/10/14 12:03:31;;;;;;;7.47;2.53;;;;;;;24.97;35.95;101148.16;4412759;32;20045;-71